createdAt,value
2023-03-02T00:03:42.014Z,77.32
2023-03-02T00:07:47.056Z,77.34
2023-03-02T00:11:45.976Z,77.14
2023-03-02T00:15:44.038Z,76.99
2023-03-02T00:19:43.025Z,77.24
2023-03-02T00:23:40.939Z,77.99
2023-03-02T00:27:38.918Z,78.50
2023-03-02T00:31:37.069Z,77.82
2023-03-02T00:35:34.917Z,77.61
2023-03-02T00:39:32.966Z,77.13
2023-03-02T00:43:34.927Z,78.24
2023-03-02T00:47:32.984Z,77.97
2023-03-02T00:51:31.875Z,77.77
2023-03-02T00:55:29.936Z,77.72
2023-03-02T00:59:36.866Z,77.72
2023-03-02T01:03:45.892Z,78.02
2023-03-02T01:07:43.871Z,78.02
2023-03-02T01:11:42.213Z,77.90
2023-03-02T01:15:39.845Z,77.83
2023-03-02T01:19:38.079Z,77.72
2023-03-02T01:23:35.844Z,77.78
2023-03-02T01:27:35.821Z,78.65
2023-03-02T01:31:33.915Z,78.68
2023-03-02T01:35:31.843Z,78.52
2023-03-02T01:39:29.910Z,78.25
2023-03-02T01:43:30.975Z,78.08
2023-03-02T01:47:39.838Z,77.94
2023-03-02T01:51:44.937Z,77.86
2023-03-02T01:55:45.897Z,77.67
2023-03-02T01:59:46.807Z,77.65
2023-03-02T02:03:45.807Z,77.64
2023-03-02T02:07:43.820Z,77.96
2023-03-02T02:11:41.756Z,78.03
2023-03-02T02:15:39.864Z,77.86
2023-03-02T02:20:03.729Z,77.84
2023-03-02T02:24:10.819Z,77.72
2023-03-02T02:28:08.770Z,77.73
2023-03-02T02:32:16.871Z,77.74
2023-03-02T02:36:21.727Z,77.69
2023-03-02T02:40:27.711Z,78.02
2023-03-02T02:44:31.715Z,78.30
2023-03-02T02:48:31.813Z,78.57
2023-03-02T02:52:33.728Z,78.45
2023-03-02T02:56:33.003Z,78.73
2023-03-02T03:00:34.690Z,78.64
2023-03-02T03:04:35.879Z,78.86
2023-03-02T03:08:58.723Z,78.90
2023-03-02T03:13:01.687Z,78.75
2023-03-02T03:17:00.771Z,78.89
2023-03-02T03:20:58.847Z,78.86
2023-03-02T03:24:58.670Z,78.76
2023-03-02T03:28:57.691Z,78.66
2023-03-02T03:32:56.641Z,78.53
2023-03-02T03:36:54.672Z,78.55
2023-03-02T03:40:53.758Z,78.64
2023-03-02T03:44:51.665Z,78.52
2023-03-02T03:48:49.640Z,78.38
2023-03-02T03:52:47.724Z,78.33
2023-03-02T03:56:54.273Z,78.41
2023-03-02T04:00:53.773Z,78.36
2023-03-02T04:04:51.652Z,78.26
2023-03-02T04:08:49.589Z,78.35
2023-03-02T04:12:49.587Z,78.31
2023-03-02T04:16:47.606Z,78.86
2023-03-02T04:20:46.634Z,78.96
2023-03-02T04:24:44.716Z,78.80
2023-03-02T04:28:42.595Z,78.94
2023-03-02T04:32:40.586Z,79.10
2023-03-02T04:36:38.883Z,79.15
2023-03-02T04:40:37.669Z,79.24
2023-03-02T04:44:35.587Z,79.56
2023-03-02T04:48:33.550Z,79.97
2023-03-02T04:52:31.538Z,80.27
2023-03-02T04:56:29.596Z,80.53
2023-03-02T05:00:28.531Z,80.64
2023-03-02T05:04:27.666Z,80.72
2023-03-02T05:08:25.530Z,80.51
2023-03-02T05:12:25.616Z,80.22
2023-03-02T05:16:23.628Z,80.14
2023-03-02T05:20:21.519Z,80.20
2023-03-02T05:24:19.541Z,80.01
2023-03-02T05:28:18.510Z,79.81
2023-03-02T05:32:16.519Z,79.79
2023-03-02T05:36:17.142Z,79.67
2023-03-02T05:40:17.672Z,79.47
2023-03-02T05:44:18.491Z,79.19
2023-03-02T05:48:16.515Z,78.95
2023-03-02T05:52:14.669Z,78.79
2023-03-02T05:56:12.485Z,78.64
2023-03-02T06:00:11.453Z,78.32
2023-03-02T06:04:09.432Z,78.17
2023-03-02T06:08:07.457Z,78.10
2023-03-02T06:12:05.524Z,77.94
2023-03-02T06:16:03.561Z,77.73
2023-03-02T06:20:01.411Z,77.50
2023-03-02T06:23:59.425Z,77.22
2023-03-02T06:28:00.400Z,77.09
2023-03-02T06:31:58.473Z,77.00
2023-03-02T06:35:56.535Z,76.90
2023-03-02T06:39:55.581Z,76.66
2023-03-02T06:43:53.437Z,76.48
2023-03-02T06:47:51.522Z,76.27
2023-03-02T06:51:49.406Z,76.14
2023-03-02T06:55:47.448Z,75.96
2023-03-02T06:59:38.597Z,75.70
2023-03-02T07:03:02.605Z,75.33
2023-03-02T07:06:26.864Z,75.04
2023-03-02T07:09:50.807Z,74.80
2023-03-02T07:13:14.919Z,74.61
2023-03-02T07:16:38.787Z,74.44
2023-03-02T07:20:05.359Z,74.26
2023-03-02T07:23:29.252Z,73.90
2023-03-02T07:26:53.082Z,73.60
2023-03-02T07:30:21.294Z,73.30
2023-03-02T07:33:45.230Z,73.32
2023-03-02T07:37:09.163Z,72.92
2023-03-02T07:40:34.834Z,71.42
2023-03-02T07:43:58.860Z,72.11
2023-03-02T07:47:24.595Z,72.10
2023-03-02T07:50:48.578Z,72.62
2023-03-02T07:54:12.556Z,73.50
2023-03-02T07:57:36.572Z,74.08
2023-03-02T08:01:02.588Z,74.62
2023-03-02T08:04:27.010Z,74.89
2023-03-02T08:07:50.874Z,74.97
2023-03-02T08:11:17.782Z,75.08
2023-03-02T08:14:41.628Z,74.50
2023-03-02T08:18:05.688Z,74.06
2023-03-02T08:21:30.498Z,74.48
2023-03-02T08:24:54.498Z,75.15
2023-03-02T08:28:18.508Z,75.50
2023-03-02T08:31:42.396Z,75.70
2023-03-02T08:35:07.434Z,76.05
2023-03-02T08:38:32.912Z,76.29
2023-03-02T08:41:57.048Z,75.90
2023-03-02T08:45:21.181Z,75.73
2023-03-02T08:48:45.714Z,75.73
2023-03-02T08:52:09.685Z,76.16
2023-03-02T08:55:37.532Z,76.22
2023-03-02T08:59:05.105Z,76.51
2023-03-02T09:02:29.074Z,76.57
2023-03-02T09:05:53.168Z,76.91
2023-03-02T09:09:17.054Z,77.06
2023-03-02T09:12:41.049Z,77.44
2023-03-02T09:16:05.922Z,77.62
2023-03-02T09:19:38.846Z,77.75
2023-03-02T09:23:02.778Z,77.77
2023-03-02T09:26:27.710Z,78.04
2023-03-02T09:29:51.689Z,78.30
2023-03-02T09:33:15.794Z,78.31
2023-03-02T09:36:40.074Z,78.34
2023-03-02T09:40:04.157Z,78.55
2023-03-02T09:43:28.249Z,78.65
2023-03-02T09:46:57.416Z,78.85
2023-03-02T09:50:32.053Z,78.70
2023-03-02T09:54:11.478Z,78.30
2023-03-02T09:57:39.928Z,78.21
2023-03-02T10:01:10.467Z,78.29
2023-03-02T10:04:45.389Z,78.48
2023-03-02T10:08:20.520Z,78.42
2023-03-02T10:11:54.907Z,78.62
2023-03-02T10:15:27.217Z,78.62
2023-03-02T10:19:11.241Z,77.32
2023-03-02T10:22:43.615Z,76.26
2023-03-02T10:26:28.230Z,74.10
2023-03-02T10:30:09.452Z,74.51
2023-03-02T10:33:36.867Z,75.19
2023-03-02T10:37:02.344Z,75.40
2023-03-02T10:40:42.614Z,75.62
2023-03-02T10:44:30.697Z,76.09
2023-03-02T10:48:20.713Z,76.57
2023-03-02T10:51:44.647Z,75.44
2023-03-02T10:55:15.359Z,75.56
2023-03-02T10:58:39.761Z,75.43
2023-03-02T11:02:15.204Z,75.26
2023-03-02T11:05:41.501Z,75.86
2023-03-02T11:09:07.980Z,75.37
2023-03-02T11:12:33.325Z,71.39
2023-03-02T11:16:00.468Z,69.89
2023-03-02T11:19:41.597Z,69.35
2023-03-02T11:23:26.014Z,70.30
2023-03-02T11:27:17.841Z,66.75
2023-03-02T11:30:48.804Z,67.54
2023-03-02T11:34:32.658Z,67.31
2023-03-02T11:38:01.004Z,68.02
2023-03-02T11:41:36.194Z,67.03
2023-03-02T11:45:05.563Z,64.25
2023-03-02T11:48:32.576Z,64.14
2023-03-02T11:52:00.000Z,61.52
2023-03-02T11:55:29.323Z,59.85
2023-03-02T11:59:04.750Z,61.52
2023-03-02T12:02:29.315Z,65.84
2023-03-02T12:05:53.347Z,67.73
2023-03-02T12:09:31.235Z,67.78
2023-03-02T12:13:07.585Z,65.82
2023-03-02T12:16:43.848Z,61.56
2023-03-02T12:20:23.396Z,63.09
2023-03-02T12:23:50.381Z,60.86
2023-03-02T12:27:14.457Z,61.41
2023-03-02T12:30:38.516Z,61.20
2023-03-02T12:34:23.375Z,62.12
2023-03-02T12:37:53.581Z,63.07
2023-03-02T12:41:31.879Z,64.22
2023-03-02T12:45:25.472Z,64.63
2023-03-02T12:49:13.035Z,61.90
2023-03-02T12:52:38.059Z,63.68
2023-03-02T12:56:02.105Z,64.92
2023-03-02T12:59:29.342Z,65.47
2023-03-02T13:02:56.214Z,66.20
2023-03-02T13:06:21.501Z,64.11
2023-03-02T13:09:56.137Z,62.24
2023-03-02T13:13:33.835Z,61.52
2023-03-02T13:17:03.013Z,63.33
2023-03-02T13:20:30.687Z,64.57
2023-03-02T13:23:54.593Z,65.82
2023-03-02T13:27:21.911Z,67.04
2023-03-02T13:30:48.092Z,67.98
2023-03-02T13:34:27.740Z,68.77
2023-03-02T13:38:26.004Z,69.33
2023-03-02T13:41:55.812Z,69.29
2023-03-02T13:45:23.074Z,69.23
2023-03-02T13:49:10.651Z,69.45
2023-03-02T13:52:35.362Z,70.39
2023-03-02T13:56:01.341Z,70.61
2023-03-02T13:59:25.563Z,68.81
2023-03-02T14:02:50.740Z,68.80
2023-03-02T14:06:14.791Z,68.96
2023-03-02T14:09:38.718Z,68.25
2023-03-02T14:13:12.623Z,68.12
2023-03-02T14:16:37.208Z,68.04
2023-03-02T14:20:01.010Z,67.33
2023-03-02T14:23:27.189Z,67.08
2023-03-02T14:26:51.273Z,67.34
2023-03-02T14:30:31.883Z,67.79
2023-03-02T14:34:31.913Z,65.81
2023-03-02T14:38:29.893Z,62.08
2023-03-02T14:42:30.753Z,62.50
2023-03-02T14:46:28.856Z,61.65
2023-03-02T14:50:26.879Z,60.08
2023-03-02T14:54:32.750Z,62.99
2023-03-02T14:58:39.714Z,62.67
2023-03-02T15:02:38.877Z,60.83
2023-03-02T15:06:45.711Z,60.76
2023-03-02T15:10:46.747Z,61.69
2023-03-02T15:14:44.713Z,61.96
2023-03-02T15:18:42.777Z,62.79
2023-03-02T15:22:40.849Z,63.60
2023-03-02T15:26:39.029Z,63.83
2023-03-02T15:30:36.698Z,65.01
2023-03-02T15:34:36.824Z,66.05
2023-03-02T15:38:34.696Z,66.57
2023-03-02T15:42:32.781Z,67.09
2023-03-02T15:46:30.815Z,68.04
2023-03-02T15:50:28.743Z,67.59
2023-03-02T15:54:26.772Z,68.06
2023-03-02T15:58:25.717Z,68.66
2023-03-02T16:02:24.650Z,68.41
2023-03-02T16:06:23.715Z,68.82
2023-03-02T16:10:22.648Z,68.86
2023-03-02T16:14:22.760Z,69.14
2023-03-02T16:18:24.823Z,69.17
2023-03-02T16:22:22.878Z,68.56
2023-03-02T16:26:22.840Z,69.26
2023-03-02T16:30:23.157Z,68.99
2023-03-02T16:34:23.600Z,69.17
2023-03-02T16:38:21.680Z,69.18
2023-03-02T16:42:19.571Z,69.14
2023-03-02T16:46:17.673Z,69.66
2023-03-02T16:50:16.597Z,69.78
2023-03-02T16:54:14.655Z,69.59
2023-03-02T16:58:12.636Z,70.79
2023-03-02T17:02:10.698Z,70.83
2023-03-02T17:06:08.565Z,70.22
2023-03-02T17:10:06.757Z,69.85
2023-03-02T17:14:04.555Z,70.36
2023-03-02T17:18:02.707Z,70.25
2023-03-02T17:22:00.683Z,70.51
2023-03-02T17:25:58.663Z,71.00
2023-03-02T17:29:56.550Z,71.42
2023-03-02T17:33:54.617Z,69.94
2023-03-02T17:37:52.537Z,70.96
2023-03-02T17:41:50.593Z,71.78
2023-03-02T17:45:49.584Z,71.01
2023-03-02T17:49:47.558Z,70.71
2023-03-02T17:53:45.572Z,71.38
2023-03-02T17:57:44.575Z,70.97
2023-03-02T18:01:44.591Z,71.02
2023-03-02T18:05:42.609Z,70.14
2023-03-02T18:09:40.532Z,71.22
2023-03-02T18:13:38.465Z,71.09
2023-03-02T18:17:36.439Z,71.23
2023-03-02T18:21:34.557Z,71.58
2023-03-02T18:25:32.544Z,72.13
2023-03-02T18:29:30.443Z,71.96
2023-03-02T18:33:28.456Z,71.69
2023-03-02T18:37:26.444Z,69.70
2023-03-02T18:41:26.440Z,69.48
2023-03-02T18:45:35.535Z,69.96
2023-03-02T18:49:33.393Z,69.74
2023-03-02T18:53:32.414Z,68.45
2023-03-02T18:57:30.409Z,69.28
2023-03-02T19:01:28.450Z,69.66
2023-03-02T19:05:26.454Z,69.91
2023-03-02T19:09:25.453Z,68.13
2023-03-02T19:13:23.439Z,69.09
2023-03-02T19:17:21.461Z,69.02
2023-03-02T19:21:20.327Z,67.81
2023-03-02T19:25:18.604Z,67.48
2023-03-02T19:29:16.424Z,67.62
2023-03-02T19:33:16.510Z,68.12
2023-03-02T19:37:14.345Z,68.28
2023-03-02T19:41:14.414Z,67.53
2023-03-02T19:45:12.420Z,67.60
2023-03-02T19:49:10.394Z,67.79
2023-03-02T19:53:09.335Z,67.87
2023-03-02T19:57:09.340Z,68.26
2023-03-02T20:01:09.432Z,69.67
2023-03-02T20:05:08.337Z,66.55
2023-03-02T20:09:07.319Z,65.61
2023-03-02T20:13:07.570Z,65.75
2023-03-02T20:17:05.337Z,66.47
2023-03-02T20:21:03.419Z,66.21
2023-03-02T20:25:01.397Z,65.39
2023-03-02T20:29:00.303Z,66.18
2023-03-02T20:32:58.484Z,67.18
2023-03-02T20:37:02.987Z,66.98
2023-03-02T20:41:01.303Z,67.01
2023-03-02T20:45:01.612Z,68.27
2023-03-02T20:48:59.303Z,69.66
2023-03-02T20:52:57.389Z,70.93
2023-03-02T20:56:56.398Z,71.76
2023-03-02T21:00:59.253Z,71.43
2023-03-02T21:04:57.310Z,71.74
2023-03-02T21:08:55.349Z,71.76
2023-03-02T21:12:55.611Z,71.97
2023-03-02T21:16:54.199Z,72.14
2023-03-02T21:20:54.202Z,71.39
2023-03-02T21:24:52.306Z,72.12
2023-03-02T21:28:51.193Z,72.12
2023-03-02T21:32:52.189Z,72.02
2023-03-02T21:36:50.163Z,70.92
2023-03-02T21:40:53.299Z,70.99
2023-03-02T21:44:51.173Z,71.22
2023-03-02T21:48:49.256Z,71.38
2023-03-02T21:52:40.684Z,70.82
2023-03-02T21:56:39.175Z,71.41
2023-03-02T22:00:49.176Z,72.06
2023-03-02T22:04:48.197Z,72.52
2023-03-02T22:08:46.213Z,72.64
2023-03-02T22:12:44.192Z,73.44
2023-03-02T22:16:47.103Z,74.40
2023-03-02T22:20:45.166Z,73.49
2023-03-02T22:24:48.163Z,72.64
2023-03-02T22:28:47.275Z,72.64
2023-03-02T22:32:51.107Z,72.97
2023-03-02T22:36:49.133Z,73.32
2023-03-02T22:40:49.205Z,73.37
2023-03-02T22:44:47.231Z,73.42
2023-03-02T22:48:45.073Z,73.37
2023-03-02T22:52:53.100Z,73.71
2023-03-02T22:56:53.061Z,73.55
2023-03-02T23:00:55.180Z,73.95
2023-03-02T23:04:53.028Z,74.00
2023-03-02T23:08:58.100Z,74.14
2023-03-02T23:12:56.075Z,74.23
2023-03-02T23:16:54.156Z,74.34
2023-03-02T23:20:52.039Z,74.23
2023-03-02T23:24:50.063Z,74.18
2023-03-02T23:28:41.186Z,74.15
2023-03-02T23:32:39.125Z,73.95
2023-03-02T23:36:37.993Z,73.95
2023-03-02T23:40:36.034Z,73.82
2023-03-02T23:44:34.004Z,73.72
2023-03-02T23:48:32.024Z,73.48
2023-03-02T23:57:18.595Z,73.12
